Terminal Aerodrome Forecast
Issued by NWS

Current Version | Previous Version | Text Only | Print | Product List | Glossary Off
Versions: 1 2 3 4 5 6 7 8 9 10 11 12 13 14 15 16 17 18 19 20 21 22 23 24 25 26 27 28 29 30 31

000
FTUS41 KILN 202000 AAA
TAFLCK
TAF AMD
KLCK 202011Z 2020/2118 21010G18KT P6SM VCSH OVC040
      TEMPO 2020/2022 5SM -SHRA BKN025
     FM210100 27006KT P6SM BKN024
     FM210600 30010KT P6SM OVC008
     FM211500 31010KT P6SM BKN015=

USA.gov is the U.S. government's official web portal to all federal, state and local government web resources and services.